Time;durP1;ratioP1;P1;durP2;ratioP2;P2;SDS_P1;SDS_P2;PMS_P1;PMS_P2;Temp;Humidity;BMP_temperature;BMP_pressure;BME280_temperature;BME280_humidity;BME280_pressure;Samples;Min_cycle;Max_cycle;Signal;HPM_P1;HPM_P2
2021/09/30 00:01:59;;;;;;;3.40;0.95;;;;;;;12.94;71.46;102369.06;4983001;28;20022;-66
2021/09/30 00:04:25;;;;;;;5.95;1.58;;;;;;;12.47;72.90;102366.72;4982130;28;20349;-66
2021/09/30 00:06:51;;;;;;;6.13;1.02;;;;;;;12.56;69.45;102373.50;4982348;28;20047;-66
2021/09/30 00:09:16;;;;;;;6.93;1.27;;;;;;;14.36;72.17;102371.94;4965340;28;20038;-66
2021/09/30 00:11:45;;;;;;;5.05;1.10;;;;;;;15.43;68.05;102376.25;4982280;28;20121;-66
2021/09/30 00:14:41;;;;;;;6.30;1.20;;;;;;;14.29;66.91;102372.19;4982409;28;20335;-66
2021/09/30 00:17:23;;;;;;;2.22;0.77;;;;;;;15.47;68.35;102377.88;4965521;28;20117;-66
2021/09/30 00:49:36;;;;;;;4.68;0.88;;;;;;;13.51;69.63;102404.38;4978961;28;20034;-66
2021/09/30 01:20:26;;;;;;;2.38;1.10;;;;;;;14.95;67.92;102392.00;4966338;28;20041;-66
2021/09/30 02:20:31;;;;;;;5.03;1.15;;;;;;;14.04;62.86;102411.59;4946804;28;20038;-66
2021/09/30 02:39:35;;;;;;;6.70;1.25;;;;;;;12.99;65.99;102410.09;4964563;28;20101;-66
2021/09/30 02:58:47;;;;;;;7.03;1.52;;;;;;;12.28;70.48;102410.94;4964693;28;20045;-66
2021/09/30 03:01:19;;;;;;;6.28;1.38;;;;;;;11.96;68.56;102412.50;4978515;28;20145;-66
2021/09/30 03:03:45;;;;;;;8.85;1.70;;;;;;;11.89;67.89;102413.50;4982173;28;20042;-66
2021/09/30 03:06:10;;;;;;;6.68;1.40;;;;;;;12.04;69.83;102415.84;4961369;28;20332;-66
2021/09/30 03:08:57;;;;;;;3.25;1.00;;;;;;;11.61;70.38;102411.44;4961625;28;20047;-66
2021/09/30 03:11:22;;;;;;;5.55;0.80;;;;;;;11.98;70.61;102408.09;4963658;28;20065;-66
2021/09/30 03:13:48;;;;;;;6.32;1.38;;;;;;;11.12;71.37;102420.25;4961561;28;20077;-66
2021/09/30 03:23:33;;;;;;;6.57;1.30;;;;;;;12.74;68.22;102423.00;4977905;28;20035;-66
2021/09/30 03:25:59;;;;;;;6.72;1.35;;;;;;;12.49;66.11;102422.72;4978972;28;20287;-66
2021/09/30 03:28:25;;;;;;;2.10;0.85;;;;;;;12.10;67.44;102426.22;4978639;28;20041;-66
2021/09/30 03:30:53;;;;;;;14.68;2.00;;;;;;;11.77;68.67;102425.13;4978854;28;20035;-66
2021/09/30 03:33:18;;;;;;;12.27;1.07;;;;;;;11.83;69.97;102432.88;4961439;28;20038;-66
2021/09/30 03:35:44;;;;;;;6.50;0.90;;;;;;;11.69;69.67;102433.16;4961745;28;20038;-65
2021/09/30 03:38:09;;;;;;;7.40;1.20;;;;;;;12.58;66.93;102429.53;4958054;29;20113;-66
2021/09/30 03:40:35;;;;;;;9.73;1.88;;;;;;;11.79;67.95;102431.22;4964712;28;20394;-66
2021/09/30 03:43:01;;;;;;;8.23;1.30;;;;;;;11.55;70.12;102443.06;4977696;28;20054;-66
2021/09/30 03:45:27;;;;;;;8.68;1.20;;;;;;;11.71;69.90;102438.38;4977540;28;20101;-66
2021/09/30 03:47:52;;;;;;;9.27;1.25;;;;;;;12.14;73.16;102437.50;4978821;28;20054;-67
2021/09/30 03:50:22;;;;;;;7.22;1.77;;;;;;;11.87;69.70;102438.94;4977720;28;20072;-67
2021/09/30 03:53:05;;;;;;;7.05;1.20;;;;;;;12.17;68.79;102439.19;4978520;28;20062;-67
2021/09/30 04:00:59;;;;;;;3.38;1.05;;;;;;;12.56;66.83;102445.31;4978340;28;20034;-67
2021/09/30 04:03:24;;;;;;;7.85;1.25;;;;;;;12.45;66.01;102450.81;4977907;28;20055;-67
2021/09/30 04:05:49;;;;;;;2.85;1.08;;;;;;;12.37;66.70;102450.16;4979735;28;20240;-67
2021/09/30 04:08:15;;;;;;;4.80;1.15;;;;;;;11.50;68.75;102455.41;4981482;28;20038;-67
2021/09/30 04:10:40;;;;;;;4.30;0.93;;;;;;;11.57;71.14;102459.66;4981861;28;20049;-67
2021/09/30 04:13:06;;;;;;;6.88;1.13;;;;;;;11.44;69.35;102461.63;4981882;28;20026;-67
2021/09/30 04:15:31;;;;;;;4.45;1.10;;;;;;;11.65;68.76;102464.75;4981027;28;20052;-67
2021/09/30 04:17:56;;;;;;;6.68;0.98;;;;;;;11.42;68.46;102470.41;4981703;28;20039;-66
2021/09/30 04:20:22;;;;;;;8.98;0.90;;;;;;;11.27;69.86;102461.91;4980986;28;20053;-67
2021/09/30 04:22:47;;;;;;;5.60;1.00;;;;;;;11.41;69.54;102463.44;4981792;28;20035;-67
2021/09/30 04:25:13;;;;;;;8.35;1.40;;;;;;;11.35;69.35;102472.31;4964078;28;20400;-66
2021/09/30 04:27:38;;;;;;;7.40;1.15;;;;;;;11.34;69.33;102463.53;4981509;28;20052;-66
2021/09/30 04:30:05;;;;;;;6.75;1.20;;;;;;;10.95;70.78;102471.22;4964825;28;20340;-66
2021/09/30 04:32:30;;;;;;;7.55;1.42;;;;;;;10.75;72.81;102471.53;4981306;28;20399;-66
2021/09/30 04:34:56;;;;;;;6.65;1.52;;;;;;;11.14;72.20;102481.38;4981983;28;20058;-66
2021/09/30 04:37:22;;;;;;;6.85;1.20;;;;;;;11.64;72.36;102482.25;4981240;28;20113;-66
2021/09/30 04:39:47;;;;;;;7.93;1.67;;;;;;;11.75;69.46;102481.16;4981165;28;20039;-66
2021/09/30 04:42:13;;;;;;;9.55;1.25;;;;;;;11.29;70.16;102478.50;4980979;28;20062;-66
2021/09/30 04:44:38;;;;;;;9.35;1.20;;;;;;;11.45;69.96;102484.34;4981249;28;20364;-66
2021/09/30 04:47:04;;;;;;;5.53;1.02;;;;;;;11.54;70.53;102475.44;4981698;28;20042;-66
2021/09/30 04:49:29;;;;;;;4.78;1.30;;;;;;;11.67;70.98;102479.56;4981151;28;20265;-66
2021/09/30 04:51:54;;;;;;;5.10;1.33;;;;;;;11.85;70.99;102473.09;4981530;28;20237;-66
2021/09/30 04:54:20;;;;;;;14.40;1.95;;;;;;;11.94;70.85;102479.09;4980276;28;20030;-67
2021/09/30 04:56:45;;;;;;;3.28;1.13;;;;;;;11.91;70.85;102480.00;4981372;28;20039;-66
2021/09/30 04:59:10;;;;;;;6.20;1.40;;;;;;;12.33;69.38;102476.50;4981116;28;20279;-66
2021/09/30 05:01:36;;;;;;;3.53;1.10;;;;;;;12.33;70.45;102474.72;4980837;28;20077;-66
2021/09/30 05:04:01;;;;;;;7.65;1.30;;;;;;;12.08;68.44;102474.44;4981131;28;20361;-66
2021/09/30 05:06:27;;;;;;;6.03;1.10;;;;;;;12.42;67.36;102468.41;4980474;28;20047;-66
2021/09/30 05:08:57;;;;;;;8.52;1.42;;;;;;;12.27;68.63;102477.50;4980517;28;20034;-66
2021/09/30 05:11:23;;;;;;;7.55;1.17;;;;;;;12.95;67.84;102475.94;4979663;28;20238;-66
2021/09/30 05:13:53;;;;;;;1.65;0.70;;;;;;;12.67;68.12;102481.88;4964059;28;20313;-66
2021/09/30 05:16:19;;;;;;;7.47;0.95;;;;;;;12.65;68.44;102487.16;4978323;28;20049;-67
2021/09/30 05:18:47;;;;;;;6.90;1.60;;;;;;;12.31;69.05;102481.78;4980055;28;20024;-67
2021/09/30 05:21:12;;;;;;;3.10;0.95;;;;;;;11.87;69.89;102483.56;4979510;28;20102;-67
2021/09/30 05:23:38;;;;;;;9.35;1.20;;;;;;;12.15;67.97;102483.00;4979721;28;20110;-67
2021/09/30 05:26:03;;;;;;;5.93;1.40;;;;;;;11.70;69.61;102478.66;4979616;28;20035;-67
2021/09/30 05:28:29;;;;;;;3.75;1.20;;;;;;;11.14;70.20;102476.16;4980299;28;20357;-67
2021/09/30 05:30:54;;;;;;;4.00;0.90;;;;;;;11.13;70.63;102477.03;4978597;28;20043;-67
2021/09/30 05:33:20;;;;;;;5.90;1.20;;;;;;;11.25;70.09;102468.94;4960735;28;20375;-67
2021/09/30 05:35:46;;;;;;;5.88;1.17;;;;;;;10.93;70.76;102473.00;4974593;28;20043;-67
2021/09/30 05:38:11;;;;;;;6.97;1.40;;;;;;;11.15;71.99;102472.63;4977403;28;20109;-66
2021/09/30 05:40:37;;;;;;;10.43;1.38;;;;;;;11.01;70.68;102472.88;4979248;28;20038;-66
2021/09/30 05:43:04;;;;;;;9.05;1.30;;;;;;;10.38;71.72;102474.66;4977572;28;20043;-66
2021/09/30 05:45:31;;;;;;;8.23;1.52;;;;;;;10.15;72.28;102472.34;4975146;28;20035;-67
2021/09/30 05:47:57;;;;;;;5.05;1.30;;;;;;;9.70;74.29;102466.75;4966637;28;20042;-68
2021/09/30 05:50:23;;;;;;;5.40;1.15;;;;;;;9.67;74.72;102468.53;4975434;28;20056;-67
2021/09/30 05:52:49;;;;;;;6.32;1.40;;;;;;;9.47;75.06;102468.75;4974349;28;20066;-67
2021/09/30 05:55:14;;;;;;;8.00;1.20;;;;;;;10.05;75.56;102464.63;4968994;28;20038;-66
2021/09/30 05:57:42;;;;;;;6.35;1.52;;;;;;;10.38;71.68;102472.03;4962920;28;20047;-66
2021/09/30 06:00:31;;;;;;;10.93;1.70;;;;;;;9.80;74.59;102470.13;4961004;28;20097;-67
2021/09/30 06:07:52;;;;;;;8.90;1.45;;;;;;;10.84;74.56;102478.38;4974449;28;20042;-66
2021/09/30 06:11:00;;;;;;;15.77;1.67;;;;;;;10.17;71.51;102486.28;4958062;29;20330;-66
2021/09/30 06:13:34;;;;;;;10.32;1.33;;;;;;;10.84;70.52;102477.50;4956180;29;20054;-66
2021/09/30 06:16:04;;;;;;;5.13;1.15;;;;;;;11.84;70.04;102471.38;4948848;28;20061;-67
2021/09/30 06:18:30;;;;;;;9.45;1.45;;;;;;;13.85;71.21;102470.09;4956048;28;20102;-68
2021/09/30 06:20:55;;;;;;;6.55;1.65;;;;;;;15.39;65.73;102475.81;4957746;28;20377;-67
2021/09/30 06:23:21;;;;;;;14.20;2.22;;;;;;;17.00;60.60;102476.78;4957320;29;20066;-67
2021/09/30 06:25:47;;;;;;;22.00;1.55;;;;;;;17.37;59.22;102472.56;4957852;29;20349;-69
2021/09/30 06:28:12;;;;;;;12.30;1.63;;;;;;;15.23;57.22;102479.91;4953832;28;20063;-68
2021/09/30 06:30:37;;;;;;;6.97;1.30;;;;;;;14.29;59.97;102477.59;4955857;29;20047;-68
2021/09/30 06:33:03;;;;;;;12.25;1.55;;;;;;;14.66;60.20;102482.66;4953950;29;20035;-68
2021/09/30 06:35:28;;;;;;;5.78;1.80;;;;;;;14.42;62.41;102480.72;4946360;29;20049;-68
2021/09/30 06:37:53;;;;;;;11.43;2.33;;;;;;;15.32;66.70;102479.59;4957951;28;20082;-68
2021/09/30 06:40:19;;;;;;;24.27;1.90;;;;;;;15.87;65.75;102477.63;4958454;28;20054;-67
2021/09/30 06:42:44;;;;;;;8.20;1.73;;;;;;;15.80;55.36;102489.34;4957454;28;20031;-68
2021/09/30 06:45:10;;;;;;;11.23;1.65;;;;;;;15.68;58.76;102488.00;4956445;29;20057;-68
2021/09/30 06:47:37;;;;;;;8.93;1.80;;;;;;;15.50;58.06;102486.88;4957429;29;20058;-68
2021/09/30 06:50:06;;;;;;;5.97;1.75;;;;;;;15.19;59.37;102488.81;4957853;29;20023;-68
2021/09/30 06:52:32;;;;;;;5.03;1.92;;;;;;;14.65;59.33;102485.31;4959604;28;20082;-68
2021/09/30 06:54:57;;;;;;;13.80;2.30;;;;;;;14.85;61.47;102484.69;4955114;28;20304;-67
2021/09/30 06:57:27;;;;;;;10.27;2.03;;;;;;;14.85;59.61;102490.81;4955657;28;20043;-68
2021/09/30 06:59:53;;;;;;;5.15;1.55;;;;;;;15.58;59.16;102491.03;4958839;28;20023;-68
2021/09/30 07:02:22;;;;;;;9.05;1.88;;;;;;;15.85;58.09;102489.19;4953568;28;20034;-68
2021/09/30 07:04:47;;;;;;;15.95;2.00;;;;;;;15.49;61.76;102487.78;4957091;29;20334;-70
2021/09/30 07:07:13;;;;;;;15.10;2.25;;;;;;;18.03;60.72;102490.84;4969429;28;20042;-67
2021/09/30 07:09:38;;;;;;;18.77;2.20;;;;;;;18.84;58.14;102484.41;4976578;28;20041;-66
2021/09/30 07:12:04;;;;;;;7.50;1.98;;;;;;;19.15;57.04;102486.38;4976241;28;20049;-66
2021/09/30 07:14:29;;;;;;;14.68;2.45;;;;;;;19.29;56.63;102486.53;4961246;28;20117;-66
2021/09/30 07:16:55;;;;;;;11.85;2.20;;;;;;;19.41;56.53;102492.16;4978131;28;20073;-67
2021/09/30 07:19:20;;;;;;;12.85;2.55;;;;;;;19.58;56.03;102496.59;4972780;28;20539;-67
2021/09/30 07:21:46;;;;;;;18.17;2.35;;;;;;;19.50;56.17;102492.56;4975631;28;20043;-67
2021/09/30 07:24:11;;;;;;;14.23;2.30;;;;;;;19.73;55.52;102501.97;4973126;28;20099;-67
2021/09/30 07:26:37;;;;;;;11.98;2.40;;;;;;;19.63;56.21;102497.19;4975815;28;20035;-67
2021/09/30 07:29:02;;;;;;;10.77;2.30;;;;;;;19.45;56.73;102499.91;4977052;28;20114;-67
2021/09/30 07:31:28;;;;;;;13.10;2.65;;;;;;;19.39;57.16;102513.47;4975495;28;20031;-67
2021/09/30 07:33:53;;;;;;;14.73;2.63;;;;;;;19.41;57.15;102508.97;4971085;28;20250;-67
2021/09/30 07:36:18;;;;;;;15.02;2.40;;;;;;;19.49;56.81;102500.59;4967820;28;20043;-67
2021/09/30 07:38:44;;;;;;;15.52;2.70;;;;;;;19.60;56.20;102505.34;4969118;28;20033;-67
2021/09/30 07:41:09;;;;;;;11.52;2.28;;;;;;;19.90;55.15;102495.78;4972775;28;20109;-67
2021/09/30 07:43:35;;;;;;;11.95;2.30;;;;;;;20.06;54.62;102500.25;4980016;28;20050;-67
2021/09/30 07:46:00;;;;;;;12.00;2.38;;;;;;;20.07;54.82;102508.16;4982001;28;20249;-67
2021/09/30 07:48:26;;;;;;;12.82;2.03;;;;;;;20.01;55.29;102496.97;4979200;28;20050;-67
2021/09/30 07:50:51;;;;;;;12.85;2.72;;;;;;;20.23;54.72;102497.53;4981716;28;20031;-66
2021/09/30 07:53:16;;;;;;;12.32;2.33;;;;;;;20.49;53.95;102508.53;4982897;28;20038;-67
2021/09/30 07:55:43;;;;;;;8.75;2.42;;;;;;;20.71;52.10;102502.88;4980065;28;20053;-66
2021/09/30 07:58:09;;;;;;;3.33;1.52;;;;;;;20.57;50.81;102508.94;4970904;28;20038;-66
2021/09/30 08:00:39;;;;;;;19.08;2.22;;;;;;;20.66;50.97;102510.25;4984877;28;20073;-64
2021/09/30 08:03:05;;;;;;;16.83;2.42;;;;;;;20.67;51.23;102512.81;4970573;28;20086;-64
2021/09/30 08:05:34;;;;;;;12.82;1.83;;;;;;;20.72;51.51;102509.91;4981410;28;20357;-64
2021/09/30 08:08:01;;;;;;;11.25;1.77;;;;;;;20.84;51.17;102519.00;4981365;28;20042;-64
2021/09/30 08:10:27;;;;;;;17.38;2.35;;;;;;;20.90;51.44;102524.81;4981468;28;20113;-65
2021/09/30 08:12:52;;;;;;;11.70;1.88;;;;;;;20.93;51.50;102521.13;4982119;28;20118;-65
2021/09/30 08:15:18;;;;;;;8.50;1.75;;;;;;;20.94;51.58;102512.19;4981914;28;20030;-64
2021/09/30 08:17:43;;;;;;;10.55;1.85;;;;;;;21.08;51.51;102522.03;4981587;28;20047;-64
2021/09/30 08:20:09;;;;;;;8.00;2.03;;;;;;;21.34;51.54;102516.94;4981800;28;20038;-64
2021/09/30 08:22:35;;;;;;;16.80;2.03;;;;;;;21.50;51.19;102522.25;4981552;28;20268;-64
2021/09/30 08:25:00;;;;;;;22.63;2.45;;;;;;;21.48;51.74;102509.03;4981253;28;20309;-65
2021/09/30 08:27:26;;;;;;;17.88;2.55;;;;;;;21.30;52.04;102508.28;4977215;28;20058;-65
2021/09/30 08:29:51;;;;;;;21.30;2.60;;;;;;;21.19;52.77;102508.06;4981897;28;20109;-63
2021/09/30 08:32:16;;;;;;;9.90;2.22;;;;;;;21.04;53.94;102508.03;4978298;28;20333;-64
2021/09/30 08:34:42;;;;;;;14.00;1.50;;;;;;;20.95;54.49;102503.25;4979243;28;20046;-64
2021/09/30 08:37:08;;;;;;;25.90;2.78;;;;;;;20.90;54.18;102503.53;4978871;28;20047;-64
2021/09/30 08:39:34;;;;;;;20.48;2.72;;;;;;;20.87;54.94;102497.53;4981022;28;20034;-63
2021/09/30 08:42:03;;;;;;;12.65;2.00;;;;;;;20.84;54.92;102506.53;4963716;28;20106;-65
2021/09/30 08:44:30;;;;;;;16.00;2.50;;;;;;;20.84;54.87;102501.19;4963625;28;20042;-63
2021/09/30 08:46:55;;;;;;;17.25;2.25;;;;;;;20.85;54.93;102505.59;4973156;28;20121;-63
2021/09/30 08:49:21;;;;;;;13.10;2.67;;;;;;;20.86;55.25;102501.97;4981012;28;20329;-65
2021/09/30 08:51:46;;;;;;;23.50;2.70;;;;;;;20.87;55.13;102500.19;4978791;28;20038;-66
2021/09/30 08:54:12;;;;;;;18.23;2.80;;;;;;;20.87;55.02;102493.03;4979765;28;20058;-65
2021/09/30 08:56:37;;;;;;;15.02;2.30;;;;;;;20.91;55.28;102496.38;4982069;28;20043;-65
2021/09/30 08:59:12;;;;;;;21.65;2.85;;;;;;;20.97;55.86;102500.50;4983986;28;20057;-67
2021/09/30 09:01:37;;;;;;;27.13;3.13;;;;;;;20.95;55.90;102497.91;4978009;28;20353;-67
2021/09/30 09:04:18;;;;;;;25.58;2.85;;;;;;;20.96;55.46;102498.78;4978667;28;20048;-68
2021/09/30 09:06:43;;;;;;;40.10;3.20;;;;;;;21.02;55.92;102495.75;4965406;28;20054;-67
2021/09/30 09:09:27;;;;;;;27.33;2.55;;;;;;;21.08;56.13;102495.38;4964577;28;20034;-67
2021/09/30 09:11:53;;;;;;;6.70;1.48;;;;;;;21.08;55.80;102498.94;4964267;28;20042;-67
2021/09/30 09:14:33;;;;;;;21.35;2.88;;;;;;;21.09;56.01;102491.78;4981167;28;20294;-67
2021/09/30 09:17:00;;;;;;;16.25;2.70;;;;;;;21.09;55.71;102491.78;4981078;28;20050;-67
2021/09/30 09:19:32;;;;;;;31.27;3.45;;;;;;;21.11;56.09;102489.88;4980536;28;20054;-67
2021/09/30 09:22:06;;;;;;;31.45;3.03;;;;;;;21.09;55.61;102487.31;4979478;28;20378;-66
2021/09/30 09:24:32;;;;;;;14.70;2.63;;;;;;;21.11;55.34;102483.72;4977616;28;20328;-68
2021/09/30 09:26:58;;;;;;;28.48;2.70;;;;;;;21.17;55.35;102486.00;4977087;28;20066;-68
2021/09/30 09:29:24;;;;;;;26.58;2.72;;;;;;;21.22;53.53;102490.09;4978586;28;20030;-68
2021/09/30 09:31:50;;;;;;;7.47;1.30;;;;;;;21.09;50.04;102487.31;4961983;28;20185;-67
2021/09/30 09:34:32;;;;;;;7.15;1.17;;;;;;;20.96;49.38;102485.47;4979838;28;20035;-67
2021/09/30 09:37:35;;;;;;;7.82;1.55;;;;;;;20.92;49.66;102491.91;4980165;28;20041;-66
2021/09/30 09:40:15;;;;;;;4.40;1.35;;;;;;;20.86;49.39;102485.13;4980626;28;20073;-67
2021/09/30 09:42:40;;;;;;;12.27;1.50;;;;;;;20.80;49.58;102478.38;4963007;28;20077;-66
2021/09/30 09:45:10;;;;;;;2.60;1.00;;;;;;;20.76;49.38;102474.19;4979586;28;20034;-67
2021/09/30 09:47:36;;;;;;;6.43;1.40;;;;;;;20.78;49.58;102471.44;4955944;28;20301;-67
2021/09/30 09:50:14;;;;;;;6.82;1.23;;;;;;;20.64;50.01;102474.88;4961059;28;20038;-69
2021/09/30 09:52:48;;;;;;;10.93;1.55;;;;;;;20.87;49.76;102473.56;4979950;28;20034;-67
2021/09/30 09:55:16;;;;;;;8.30;2.25;;;;;;;21.07;49.57;102472.38;4978404;28;20026;-67
2021/09/30 09:57:41;;;;;;;4.77;1.43;;;;;;;21.17;49.39;102473.53;4980000;28;20049;-67
2021/09/30 10:00:12;;;;;;;6.50;1.25;;;;;;;21.19;49.49;102474.31;4979998;28;20302;-67
2021/09/30 10:02:37;;;;;;;11.48;1.48;;;;;;;21.19;49.55;102473.44;4979423;28;20038;-67
2021/09/30 10:05:03;;;;;;;11.38;1.95;;;;;;;21.19;49.70;102469.00;4978731;28;20348;-67
2021/09/30 10:07:29;;;;;;;11.25;1.27;;;;;;;21.18;49.80;102471.75;4961770;28;20062;-67
2021/09/30 10:09:54;;;;;;;3.75;1.48;;;;;;;21.19;49.90;102470.78;4960118;28;20049;-67
2021/09/30 10:12:20;;;;;;;10.52;1.45;;;;;;;21.19;49.98;102474.31;4979059;28;20058;-68
2021/09/30 10:14:45;;;;;;;6.28;1.17;;;;;;;21.18;50.04;102469.06;4972736;28;20027;-69
2021/09/30 10:17:10;;;;;;;11.68;1.30;;;;;;;21.15;50.13;102470.09;4962099;28;20231;-68
2021/09/30 10:19:37;;;;;;;8.10;1.60;;;;;;;21.14;50.55;102464.84;4973738;28;20066;-69
2021/09/30 10:22:02;;;;;;;10.15;1.50;;;;;;;21.10;50.52;102466.84;4962491;28;20041;-69
2021/09/30 10:24:28;;;;;;;5.30;1.30;;;;;;;21.02;50.83;102466.47;4978522;28;20038;-68
2021/09/30 10:26:57;;;;;;;7.35;1.65;;;;;;;20.99;51.13;102469.28;4978584;28;20041;-68
2021/09/30 10:29:44;;;;;;;3.78;1.25;;;;;;;20.99;51.07;102461.31;4977013;28;20062;-69
2021/09/30 10:32:10;;;;;;;5.80;1.50;;;;;;;21.13;50.82;102461.34;4978482;28;20038;-68
2021/09/30 10:34:37;;;;;;;3.78;1.33;;;;;;;21.20;50.66;102452.03;4976878;28;20218;-68
2021/09/30 10:37:17;;;;;;;22.15;1.83;;;;;;;21.16;50.79;102461.19;4980564;28;20050;-67
2021/09/30 10:39:43;;;;;;;5.25;1.20;;;;;;;21.13;50.93;102457.84;4980612;28;20032;-67
2021/09/30 10:42:08;;;;;;;7.40;1.60;;;;;;;21.10;51.12;102453.53;4980079;28;20022;-68
2021/09/30 10:44:35;;;;;;;6.60;1.30;;;;;;;21.07;51.09;102451.91;4980424;28;20127;-68
2021/09/30 10:47:05;;;;;;;10.55;1.77;;;;;;;21.05;51.21;102460.97;4979180;28;20114;-67
2021/09/30 10:49:42;;;;;;;15.13;1.98;;;;;;;20.97;51.20;102453.41;4966754;28;20042;-68
2021/09/30 10:52:16;;;;;;;10.02;1.50;;;;;;;20.95;51.31;102470.44;4980211;28;20027;-67
2021/09/30 10:54:42;;;;;;;15.45;1.70;;;;;;;20.93;51.15;102462.53;4980815;28;20030;-67
2021/09/30 10:57:37;;;;;;;7.07;1.75;;;;;;;20.85;51.34;102455.00;4980056;28;20042;-67
2021/09/30 11:00:07;;;;;;;10.50;2.15;;;;;;;20.79;51.28;102451.81;4978581;28;20054;-67
2021/09/30 11:03:01;;;;;;;17.15;1.63;;;;;;;20.71;51.58;102460.28;4973859;28;20054;-67
2021/09/30 11:05:30;;;;;;;18.25;1.65;;;;;;;20.70;51.54;102455.88;4979095;28;20220;-67
2021/09/30 11:08:19;;;;;;;15.15;1.67;;;;;;;20.73;51.27;102445.06;4979693;28;20385;-67
2021/09/30 11:13:30;;;;;;;4.22;1.17;;;;;;;20.70;51.48;102451.44;4979839;28;20034;-67
2021/09/30 11:15:58;;;;;;;6.65;1.02;;;;;;;20.70;51.17;102448.78;4982008;28;20310;-67
2021/09/30 11:18:51;;;;;;;9.10;1.75;;;;;;;20.62;51.27;102451.00;4983376;28;20034;-67
2021/09/30 11:23:56;;;;;;;5.65;1.45;;;;;;;20.53;51.60;102444.38;4983678;28;20218;-67
2021/09/30 11:26:21;;;;;;;5.60;1.15;;;;;;;20.50;51.46;102449.00;4982764;28;20026;-67
2021/09/30 11:28:46;;;;;;;9.05;1.20;;;;;;;20.50;51.74;102439.25;4980156;28;20065;-68
2021/09/30 11:31:31;;;;;;;18.92;1.98;;;;;;;20.49;52.28;102440.19;4963586;28;20096;-69
2021/09/30 11:33:57;;;;;;;14.38;1.80;;;;;;;20.51;52.75;102440.09;4981438;28;20047;-68
2021/09/30 11:36:34;;;;;;;10.77;1.88;;;;;;;20.51;52.54;102442.75;4983379;28;20027;-69
2021/09/30 11:38:59;;;;;;;13.60;1.23;;;;;;;20.56;52.57;102435.38;4962109;28;20042;-68
2021/09/30 11:41:28;;;;;;;14.90;1.65;;;;;;;20.59;52.52;102437.88;4980238;28;20112;-68
2021/09/30 11:43:54;;;;;;;10.43;1.90;;;;;;;20.60;52.57;102428.91;4984070;28;20027;-68
2021/09/30 11:46:27;;;;;;;29.55;1.98;;;;;;;20.61;52.68;102430.69;4966667;28;20123;-69
2021/09/30 11:49:12;;;;;;;9.27;1.60;;;;;;;20.64;52.85;102416.31;4967541;28;20318;-68
2021/09/30 11:51:42;;;;;;;19.67;2.03;;;;;;;20.62;52.89;102424.38;4984437;28;20031;-68
2021/09/30 11:54:10;;;;;;;6.07;1.08;;;;;;;20.59;52.85;102424.56;4981458;28;20315;-68
2021/09/30 11:56:45;;;;;;;9.33;1.90;;;;;;;20.58;53.14;102428.16;4979835;28;20043;-68
2021/09/30 11:59:11;;;;;;;15.13;1.80;;;;;;;20.56;53.49;102421.22;4981780;28;20183;-68
2021/09/30 12:01:56;;;;;;;17.45;1.73;;;;;;;20.58;53.35;102428.16;4983947;28;20101;-69
2021/09/30 12:04:40;;;;;;;8.38;1.88;;;;;;;20.57;53.37;102413.13;4983386;28;20066;-68
2021/09/30 12:07:27;;;;;;;17.30;2.20;;;;;;;20.59;53.76;102418.34;4982540;28;20049;-68
2021/09/30 12:09:58;;;;;;;10.45;1.73;;;;;;;20.60;54.20;102422.75;4984169;28;20022;-68
2021/09/30 12:12:49;;;;;;;13.30;1.75;;;;;;;20.63;54.13;102407.50;4982995;28;20098;-67
2021/09/30 12:15:14;;;;;;;11.82;1.65;;;;;;;20.62;53.93;102405.75;4979068;28;20050;-68
2021/09/30 12:17:40;;;;;;;12.80;1.60;;;;;;;20.48;53.82;102406.56;4983340;28;20046;-68
2021/09/30 12:20:13;;;;;;;15.73;1.77;;;;;;;20.48;54.52;102401.22;4982614;28;20050;-68
2021/09/30 12:22:44;;;;;;;15.35;1.73;;;;;;;20.54;54.61;102402.66;4981599;28;20062;-69
2021/09/30 12:25:17;;;;;;;13.57;1.70;;;;;;;20.58;54.54;102390.91;4983550;28;20041;-67
2021/09/30 12:27:47;;;;;;;18.88;2.35;;;;;;;20.62;54.63;102383.63;4985280;28;20231;-68
2021/09/30 12:30:20;;;;;;;10.70;1.98;;;;;;;20.73;54.65;102389.16;4966065;28;20118;-69
2021/09/30 12:32:47;;;;;;;23.48;2.47;;;;;;;20.80;54.37;102382.53;4982626;28;20034;-68
2021/09/30 12:35:29;;;;;;;18.30;2.25;;;;;;;20.89;54.33;102381.13;4981836;28;20354;-69
2021/09/30 12:37:56;;;;;;;12.95;1.35;;;;;;;20.98;54.19;102369.91;4981558;28;20046;-69
2021/09/30 12:40:26;;;;;;;13.48;1.80;;;;;;;21.01;54.13;102371.53;4982442;28;20034;-68
2021/09/30 12:43:14;;;;;;;13.95;2.17;;;;;;;21.08;53.92;102367.53;4983275;28;20035;-68
2021/09/30 12:46:02;;;;;;;20.27;1.95;;;;;;;21.01;52.82;102359.09;4982416;28;20026;-68
2021/09/30 12:48:29;;;;;;;6.82;1.20;;;;;;;20.84;50.47;102357.41;4981386;28;20073;-68
2021/09/30 12:51:03;;;;;;;3.58;1.00;;;;;;;20.74;50.42;102358.94;4982671;28;20034;-68
2021/09/30 12:53:28;;;;;;;4.13;1.05;;;;;;;20.71;50.46;102359.13;4964885;28;20328;-68
2021/09/30 12:56:07;;;;;;;7.47;1.33;;;;;;;20.70;50.31;102342.28;4982053;28;20038;-68
2021/09/30 12:58:45;;;;;;;2.60;0.88;;;;;;;20.69;50.48;102345.88;4981346;28;20063;-69
2021/09/30 13:01:20;;;;;;;7.10;1.00;;;;;;;20.65;50.40;102349.69;4968223;28;20326;-69
2021/09/30 13:04:04;;;;;;;3.05;0.93;;;;;;;20.55;50.53;102342.31;4980548;28;20125;-68
2021/09/30 13:06:29;;;;;;;4.20;0.90;;;;;;;20.47;50.78;102329.47;4981182;28;20042;-69
2021/09/30 13:08:54;;;;;;;2.13;0.88;;;;;;;20.42;50.74;102336.84;4981981;28;20062;-69
2021/09/30 13:11:30;;;;;;;4.78;1.00;;;;;;;20.39;51.11;102326.38;4980623;28;20034;-70
2021/09/30 13:14:36;;;;;;;7.28;1.35;;;;;;;20.47;50.99;102326.81;4979803;28;20051;-70
2021/09/30 13:17:13;;;;;;;5.82;1.00;;;;;;;20.55;51.32;102323.69;4966137;28;20047;-69
2021/09/30 13:20:14;;;;;;;16.55;1.33;;;;;;;20.58;51.21;102310.19;4974814;28;20270;-69
2021/09/30 13:22:41;;;;;;;10.77;1.13;;;;;;;20.60;51.42;102308.31;4922625;29;20418;-68
2021/09/30 13:25:08;;;;;;;9.32;1.20;;;;;;;20.52;51.73;102309.63;4971375;28;20038;-69
2021/09/30 13:27:35;;;;;;;16.17;1.60;;;;;;;20.55;52.04;102311.22;4982664;28;20046;-69
2021/09/30 13:30:02;;;;;;;8.82;2.42;;;;;;;20.60;52.05;102302.97;4982453;28;20034;-69
2021/09/30 13:32:27;;;;;;;5.13;1.23;;;;;;;20.59;52.46;102301.25;4981590;28;20039;-70
2021/09/30 13:34:55;;;;;;;10.55;1.70;;;;;;;20.63;52.37;102287.72;4982604;28;20215;-69
2021/09/30 13:37:20;;;;;;;14.70;1.50;;;;;;;20.64;52.62;102293.88;4981376;28;20054;-68
2021/09/30 13:39:46;;;;;;;11.75;1.73;;;;;;;20.63;52.56;102287.72;4975656;28;20038;-71
2021/09/30 13:42:11;;;;;;;8.88;1.67;;;;;;;20.58;53.08;102278.25;4980999;28;20030;-69
2021/09/30 13:44:37;;;;;;;17.90;2.17;;;;;;;20.60;53.39;102276.38;4982361;28;20100;-70
2021/09/30 13:47:02;;;;;;;10.93;2.00;;;;;;;20.57;53.43;102272.06;4978455;28;20572;-69
2021/09/30 13:49:28;;;;;;;6.47;1.58;;;;;;;20.61;53.63;102267.44;4978814;28;20070;-69
2021/09/30 13:51:53;;;;;;;9.55;1.40;;;;;;;20.59;53.79;102264.00;4981641;28;20031;-69
2021/09/30 13:54:19;;;;;;;13.30;1.88;;;;;;;20.60;54.01;102260.41;4982194;28;20039;-69
2021/09/30 13:56:44;;;;;;;9.95;1.35;;;;;;;20.62;53.92;102263.84;4982464;28;20038;-68
2021/09/30 13:59:10;;;;;;;12.15;1.80;;;;;;;20.64;54.02;102252.16;4980153;28;20030;-68
2021/09/30 14:01:35;;;;;;;8.48;1.60;;;;;;;20.64;53.83;102241.50;4980525;28;20053;-69
2021/09/30 14:04:02;;;;;;;15.82;2.03;;;;;;;20.70;53.76;102253.56;4978332;28;20085;-69
2021/09/30 14:06:27;;;;;;;12.40;2.00;;;;;;;20.74;53.75;102239.16;4964515;28;20055;-70
2021/09/30 14:08:53;;;;;;;11.95;1.60;;;;;;;20.74;53.86;102244.47;4981765;28;20065;-69
2021/09/30 14:11:19;;;;;;;17.77;2.75;;;;;;;20.69;54.10;102247.41;4981798;28;20122;-70
2021/09/30 14:13:45;;;;;;;12.38;2.28;;;;;;;20.60;54.53;102233.78;4965277;28;20034;-70
2021/09/30 14:16:10;;;;;;;16.73;2.17;;;;;;;20.60;54.60;102239.09;4989220;28;20026;-69
2021/09/30 14:18:36;;;;;;;12.57;2.13;;;;;;;20.63;54.85;102233.59;4968650;28;20035;-69
2021/09/30 14:21:01;;;;;;;13.43;1.67;;;;;;;20.62;54.79;102240.75;4985288;28;20038;-69
2021/09/30 14:23:27;;;;;;;19.92;2.83;;;;;;;20.56;55.08;102234.94;4981368;28;20030;-70